createdAt,value
2018-11-01T00:01:35.802Z,9.01
2018-11-01T00:04:05.609Z,9.05
2018-11-01T00:06:35.402Z,8.96
2018-11-01T00:09:07.970Z,9.05
2018-11-01T00:11:37.156Z,9.05
2018-11-01T00:14:07.319Z,9.02
2018-11-01T00:16:36.533Z,9.01
2018-11-01T00:19:06.330Z,8.85
2018-11-01T00:21:35.505Z,8.75
2018-11-01T00:24:04.683Z,8.93
2018-11-01T00:26:33.919Z,8.95
2018-11-01T00:29:03.122Z,8.99
2018-11-01T00:31:32.289Z,8.99
2018-11-01T00:34:01.484Z,9.08
2018-11-01T00:38:58.893Z,8.98
2018-11-01T00:41:28.334Z,9.02
2018-11-01T00:43:57.505Z,8.96
2018-11-01T00:46:26.671Z,8.96
2018-11-01T00:48:55.853Z,9.03
2018-11-01T00:51:25.021Z,9.08
2018-11-01T00:53:54.190Z,9.00
2018-11-01T00:56:23.361Z,9.09
2018-11-01T00:58:52.534Z,9.06
2018-11-01T01:01:21.698Z,9.11
2018-11-01T01:03:50.881Z,9.20
2018-11-01T01:06:20.050Z,9.21
2018-11-01T01:08:49.221Z,9.18
2018-11-01T01:11:18.398Z,9.18
2018-11-01T01:13:47.574Z,9.19
2018-11-01T01:16:16.755Z,9.12
2018-11-01T01:18:45.927Z,9.23
2018-11-01T01:21:15.254Z,9.33
2018-11-01T01:23:44.443Z,9.28
2018-11-01T01:26:13.610Z,9.12
2018-11-01T01:28:42.795Z,9.23
2018-11-01T01:31:11.958Z,9.23
2018-11-01T01:33:41.126Z,9.28
2018-11-01T01:36:10.293Z,9.23
2018-11-01T01:38:39.504Z,9.32
2018-11-01T01:41:08.750Z,9.38
2018-11-01T01:43:38.037Z,9.36
2018-11-01T01:46:07.227Z,9.28
2018-11-01T01:48:36.397Z,9.04
2018-11-01T01:51:06.271Z,8.96
2018-11-01T01:53:36.202Z,9.06
2018-11-01T01:56:06.393Z,9.08
2018-11-01T01:58:36.155Z,8.98
2018-11-01T02:01:06.786Z,9.01
2018-11-01T02:03:36.199Z,8.94
2018-11-01T02:06:06.358Z,8.93
2018-11-01T02:08:36.313Z,8.95
2018-11-01T02:11:06.678Z,8.93
2018-11-01T02:13:36.167Z,8.94
2018-11-01T02:16:05.893Z,8.98
2018-11-01T02:18:36.293Z,8.84
2018-11-01T02:21:06.947Z,8.72
2018-11-01T02:23:36.218Z,8.70
2018-11-01T02:26:06.652Z,8.59
2018-11-01T02:28:36.240Z,8.59
2018-11-01T02:31:06.259Z,8.55
2018-11-01T02:33:36.272Z,8.74
2018-11-01T02:36:15.084Z,8.69
2018-11-01T02:39:00.628Z,8.49
2018-11-01T02:41:36.111Z,8.38
2018-11-01T02:44:06.635Z,8.38
2018-11-01T02:46:36.962Z,8.45
2018-11-01T02:49:07.960Z,8.40
2018-11-01T02:51:37.179Z,8.38
2018-11-01T02:54:07.131Z,8.39
2018-11-01T02:56:36.579Z,8.39
2018-11-01T02:59:06.847Z,8.44
2018-11-01T03:01:36.587Z,8.36
2018-11-01T03:04:06.799Z,8.34
2018-11-01T03:06:43.242Z,8.35
2018-11-01T03:09:12.452Z,8.43
2018-11-01T03:11:41.692Z,8.53
2018-11-01T03:14:10.945Z,8.43
2018-11-01T03:16:40.235Z,8.52
2018-11-01T03:19:09.422Z,8.47
2018-11-01T03:21:38.637Z,8.53
2018-11-01T03:24:07.815Z,8.53
2018-11-01T03:26:37.031Z,8.53
2018-11-01T03:29:07.103Z,8.63
2018-11-01T03:34:05.098Z,8.45
2018-11-01T03:36:34.290Z,8.50
2018-11-01T03:39:05.509Z,8.51
2018-11-01T03:41:34.856Z,8.50
2018-11-01T03:44:04.047Z,8.35
2018-11-01T03:46:36.838Z,8.31
2018-11-01T03:49:12.377Z,8.38
2018-11-01T03:51:41.607Z,8.41
2018-11-01T03:54:10.788Z,8.44
2018-11-01T03:56:39.985Z,8.41
2018-11-01T03:59:09.179Z,8.39
2018-11-01T04:01:38.804Z,8.38
2018-11-01T04:04:08.898Z,8.36
2018-11-01T04:06:38.935Z,8.28
2018-11-01T04:09:11.265Z,8.22
2018-11-01T04:11:40.864Z,8.22
2018-11-01T04:14:10.411Z,8.11
2018-11-01T04:16:39.951Z,8.15
2018-11-01T04:19:09.882Z,8.19
2018-11-01T04:21:39.905Z,8.19
2018-11-01T04:24:09.908Z,8.20
2018-11-01T04:26:40.103Z,8.11
2018-11-01T04:29:09.850Z,8.19
2018-11-01T04:31:38.987Z,8.17
2018-11-01T04:34:08.140Z,7.97
2018-11-01T04:36:37.355Z,8.14
2018-11-01T04:39:09.698Z,8.15
2018-11-01T04:41:38.851Z,8.22
2018-11-01T04:44:08.144Z,8.19
2018-11-01T04:46:37.250Z,8.23
2018-11-01T04:49:06.879Z,8.25
2018-11-01T04:51:36.147Z,8.30
2018-11-01T04:54:05.502Z,8.33
2018-11-01T04:56:35.023Z,8.33
2018-11-01T04:59:04.164Z,8.40
2018-11-01T05:01:33.319Z,8.36
2018-11-01T05:04:02.511Z,8.30
2018-11-01T05:06:31.662Z,8.28
2018-11-01T05:09:00.848Z,8.36
2018-11-01T05:11:30.016Z,8.41
2018-11-01T05:13:59.176Z,8.36
2018-11-01T05:16:28.330Z,8.43
2018-11-01T05:18:57.487Z,8.51
2018-11-01T05:21:26.635Z,8.48
2018-11-01T05:23:55.791Z,8.53
2018-11-01T05:26:24.955Z,8.46
2018-11-01T05:28:54.112Z,8.48
2018-11-01T05:31:23.299Z,8.39
2018-11-01T05:33:52.444Z,8.44
2018-11-01T05:36:21.691Z,8.53
2018-11-01T05:38:50.851Z,8.56
2018-11-01T05:41:20.007Z,8.61
2018-11-01T05:43:49.201Z,8.65
2018-11-01T05:46:18.379Z,8.63
2018-11-01T05:48:47.590Z,8.73
2018-11-01T05:51:16.891Z,8.82
2018-11-01T05:53:46.041Z,8.92
2018-11-01T05:56:15.968Z,8.86
2018-11-01T05:58:46.047Z,8.92
2018-11-01T06:01:20.175Z,8.86
2018-11-01T06:03:49.472Z,8.84
2018-11-01T06:06:18.621Z,8.92
2018-11-01T06:08:48.620Z,8.95
2018-11-01T06:11:17.825Z,8.92
2018-11-01T06:13:46.963Z,8.96
2018-11-01T06:16:16.120Z,8.92
2018-11-01T06:18:46.279Z,8.94
2018-11-01T06:21:16.300Z,8.78
2018-11-01T06:23:46.216Z,8.86
2018-11-01T06:26:16.787Z,8.92
2018-11-01T06:28:45.946Z,8.92
2018-11-01T06:31:16.332Z,8.88
2018-11-01T06:33:46.274Z,8.94
2018-11-01T06:36:16.323Z,8.93
2018-11-01T06:38:46.384Z,8.83
2018-11-01T06:41:16.340Z,8.79
2018-11-01T06:43:47.682Z,8.88
2018-11-01T06:46:17.334Z,8.96
2018-11-01T06:48:46.459Z,8.98
2018-11-01T06:51:16.328Z,9.02
2018-11-01T06:53:46.273Z,9.15
2018-11-01T06:56:16.264Z,9.20
2018-11-01T07:04:28.196Z,8.99
2018-11-01T07:06:57.340Z,9.15
2018-11-01T07:09:26.474Z,9.22
2018-11-01T07:11:55.610Z,9.04
2018-11-01T07:14:24.739Z,9.22
2018-11-01T07:16:53.965Z,9.25
2018-11-01T07:19:23.024Z,9.15
2018-11-01T07:21:52.167Z,9.33
2018-11-01T07:24:21.311Z,9.28
2018-11-01T07:26:50.515Z,9.28
2018-11-01T07:29:19.653Z,9.31
2018-11-01T07:31:48.896Z,9.40
2018-11-01T07:34:18.086Z,9.48
2018-11-01T07:36:47.286Z,9.50
2018-11-01T07:39:16.496Z,9.45
2018-11-01T07:41:46.447Z,9.53
2018-11-01T07:44:16.371Z,9.48
2018-11-01T07:46:47.671Z,9.46
2018-11-01T07:49:16.815Z,9.31
2018-11-01T07:51:46.410Z,9.35
2018-11-01T07:54:16.395Z,9.48
2018-11-01T07:56:46.439Z,9.41
2018-11-01T07:59:16.454Z,9.42
2018-11-01T08:01:46.466Z,9.58
2018-11-01T08:04:16.515Z,9.62
2018-11-01T08:06:45.662Z,9.72
2018-11-01T08:09:14.860Z,9.67
2018-11-01T08:11:44.094Z,9.72
2018-11-01T08:14:13.257Z,9.69
2018-11-01T08:16:42.389Z,9.72
2018-11-01T08:19:11.535Z,9.76
2018-11-01T08:21:40.683Z,9.73
2018-11-01T08:24:09.827Z,9.80
2018-11-01T08:26:38.966Z,9.87
2018-11-01T08:29:08.156Z,9.73
2018-11-01T08:31:37.264Z,9.77
2018-11-01T08:34:06.422Z,9.94
2018-11-01T08:36:35.566Z,10.08
2018-11-01T08:39:06.376Z,9.99
2018-11-01T08:41:35.512Z,10.02
2018-11-01T08:44:04.975Z,9.92
2018-11-01T08:46:34.131Z,10.06
2018-11-01T08:49:03.355Z,9.98
2018-11-01T08:51:32.619Z,9.98
2018-11-01T08:54:01.895Z,10.12
2018-11-01T08:56:31.031Z,10.09
2018-11-01T08:59:00.184Z,10.14
2018-11-01T09:01:29.323Z,10.29
2018-11-01T09:03:58.508Z,10.37
2018-11-01T09:06:27.688Z,10.42
2018-11-01T09:08:57.027Z,10.50
2018-11-01T09:11:26.228Z,10.53
2018-11-01T09:13:55.384Z,10.59
2018-11-01T09:16:24.631Z,10.62
2018-11-01T09:18:53.780Z,10.62
2018-11-01T09:21:22.924Z,10.68
2018-11-01T09:23:52.126Z,10.78
2018-11-01T09:26:21.583Z,10.71
2018-11-01T09:28:50.772Z,10.77
2018-11-01T09:31:20.785Z,10.86
2018-11-01T09:33:50.887Z,10.93
2018-11-01T09:36:20.704Z,10.94
2018-11-01T09:38:50.735Z,11.00
2018-11-01T09:41:20.824Z,10.99
2018-11-01T09:43:50.748Z,11.06
2018-11-01T09:46:20.972Z,11.20
2018-11-01T09:48:51.135Z,11.22
2018-11-01T09:51:20.879Z,11.33
2018-11-01T09:58:53.535Z,11.27
2018-11-01T10:01:22.795Z,11.52
2018-11-01T10:03:52.604Z,11.69
2018-11-01T10:06:26.877Z,11.70
2018-11-01T10:08:56.115Z,11.74
2018-11-01T10:11:25.284Z,11.82
2018-11-01T10:13:54.431Z,11.92
2018-11-01T10:16:23.683Z,11.96
2018-11-01T10:18:52.795Z,12.00
2018-11-01T10:21:22.053Z,11.99
2018-11-01T10:23:51.110Z,12.10
2018-11-01T10:26:21.007Z,12.22
2018-11-01T10:28:50.968Z,12.41
2018-11-01T10:31:20.153Z,12.68
2018-11-01T10:33:49.357Z,12.96
2018-11-01T10:36:18.508Z,13.09
2018-11-01T10:38:47.723Z,13.21
2018-11-01T10:41:17.019Z,13.29
2018-11-01T10:43:46.199Z,13.36
2018-11-01T10:46:15.362Z,13.57
2018-11-01T10:48:44.660Z,13.60
2018-11-01T10:51:13.847Z,13.74
2018-11-01T10:53:43.092Z,13.87
2018-11-01T10:56:12.355Z,13.93
2018-11-01T10:58:41.523Z,14.08
2018-11-01T11:01:16.003Z,14.24
2018-11-01T11:03:45.143Z,14.31
2018-11-01T11:06:14.300Z,14.17
2018-11-01T11:08:43.519Z,14.31
2018-11-01T11:11:12.744Z,14.36
2018-11-01T11:13:41.936Z,14.28
2018-11-01T11:16:11.089Z,14.47
2018-11-01T11:18:40.285Z,14.49
2018-11-01T11:21:09.694Z,14.64
2018-11-01T11:23:40.798Z,14.60
2018-11-01T11:26:10.088Z,14.63
2018-11-01T11:28:39.235Z,14.81
2018-11-01T11:31:08.435Z,14.99
2018-11-01T11:33:37.583Z,15.07
2018-11-01T11:36:06.987Z,15.12
2018-11-01T11:38:36.247Z,15.15
2018-11-01T11:41:05.563Z,15.28
2018-11-01T11:43:34.709Z,15.30
2018-11-01T11:46:03.863Z,15.25
2018-11-01T11:48:33.204Z,15.45
2018-11-01T11:51:02.354Z,15.32
2018-11-01T11:53:31.576Z,15.44
2018-11-01T11:56:00.736Z,15.66
2018-11-01T11:58:29.883Z,15.55
2018-11-01T12:00:59.048Z,15.54
2018-11-01T12:03:28.186Z,15.64
2018-11-01T12:05:58.796Z,15.69
2018-11-01T12:08:28.481Z,15.81
2018-11-01T12:10:57.704Z,15.83
2018-11-01T12:13:26.838Z,15.80
2018-11-01T12:15:55.987Z,15.83
2018-11-01T12:18:25.139Z,15.99
2018-11-01T12:20:54.380Z,16.10
2018-11-01T12:23:23.574Z,16.01
2018-11-01T12:25:52.722Z,15.99
2018-11-01T12:28:21.971Z,15.92
2018-11-01T12:30:51.172Z,15.83
2018-11-01T12:33:21.070Z,15.74
2018-11-01T12:35:51.168Z,15.67
2018-11-01T12:38:21.308Z,15.73
2018-11-01T12:40:51.188Z,15.73
2018-11-01T12:43:21.191Z,15.77
2018-11-01T12:45:51.111Z,15.91
2018-11-01T12:48:21.182Z,16.07
2018-11-01T12:50:51.120Z,16.13
2018-11-01T12:53:22.283Z,16.14
2018-11-01T12:55:51.435Z,16.12
2018-11-01T12:58:21.187Z,16.14
2018-11-01T13:00:51.138Z,16.08
2018-11-01T13:03:21.268Z,16.08
2018-11-01T13:05:51.159Z,16.14
2018-11-01T13:08:21.155Z,16.11
2018-11-01T13:10:51.239Z,16.07
2018-11-01T13:13:21.200Z,16.13
2018-11-01T13:15:51.216Z,16.21
2018-11-01T13:18:21.215Z,16.27
2018-11-01T13:20:51.276Z,16.27
2018-11-01T13:23:21.316Z,16.31
2018-11-01T13:25:51.274Z,16.31
2018-11-01T13:28:21.288Z,16.35
2018-11-01T13:30:51.215Z,16.36
2018-11-01T13:33:21.220Z,16.37
2018-11-01T13:35:51.306Z,16.16
2018-11-01T13:38:21.272Z,16.16
2018-11-01T13:40:51.780Z,16.24
2018-11-01T13:43:21.223Z,16.20
2018-11-01T13:45:51.323Z,16.09
2018-11-01T13:48:21.527Z,16.17
2018-11-01T13:50:51.346Z,16.11
2018-11-01T13:53:21.268Z,16.13
2018-11-01T13:55:51.429Z,16.16
2018-11-01T13:58:21.309Z,16.16
2018-11-01T14:00:51.320Z,16.16
2018-11-01T14:03:21.360Z,16.22
2018-11-01T14:05:51.460Z,16.15
2018-11-01T14:08:21.368Z,16.07
2018-11-01T14:10:52.507Z,16.02
2018-11-01T14:13:21.736Z,16.00
2018-11-01T14:15:51.324Z,15.95
2018-11-01T14:18:21.332Z,15.89
2018-11-01T14:20:51.403Z,15.77
2018-11-01T14:23:21.410Z,15.80
2018-11-01T14:25:51.391Z,15.78
2018-11-01T14:28:21.412Z,15.81
2018-11-01T14:30:51.333Z,15.80
2018-11-01T14:33:21.504Z,15.79
2018-11-01T14:35:51.422Z,15.76
2018-11-01T14:38:21.376Z,15.77
2018-11-01T14:40:51.444Z,15.76
2018-11-01T14:43:21.404Z,15.70
2018-11-01T14:45:52.468Z,15.65
2018-11-01T14:48:21.622Z,15.63
2018-11-01T14:50:51.480Z,15.65
2018-11-01T14:53:21.814Z,15.59
2018-11-01T14:55:52.608Z,15.53
2018-11-01T14:58:22.654Z,15.51
2018-11-01T15:00:51.464Z,15.51
2018-11-01T15:03:21.440Z,15.47
2018-11-01T15:05:51.475Z,15.48
2018-11-01T15:08:20.632Z,15.44
2018-11-01T15:10:49.787Z,15.39
2018-11-01T15:13:19.080Z,15.38
2018-11-01T15:15:48.087Z,15.33
2018-11-01T15:18:17.238Z,15.29
2018-11-01T15:20:46.386Z,15.24
2018-11-01T15:23:15.531Z,15.20
2018-11-01T15:25:44.706Z,15.16
2018-11-01T15:28:13.921Z,15.13
2018-11-01T15:30:43.043Z,15.05
2018-11-01T15:33:12.208Z,15.01
2018-11-01T15:35:41.352Z,14.99
2018-11-01T15:38:10.608Z,14.96
2018-11-01T15:40:39.751Z,14.92
2018-11-01T15:43:09.116Z,14.89
2018-11-01T15:45:38.262Z,14.82
2018-11-01T15:48:07.421Z,14.74
2018-11-01T15:50:36.808Z,14.70
2018-11-01T15:53:06.276Z,14.66
2018-11-01T15:55:35.422Z,14.60
2018-11-01T15:58:04.839Z,14.59
2018-11-01T16:00:33.988Z,14.56
2018-11-01T16:03:03.188Z,14.49
2018-11-01T16:05:37.683Z,14.48
2018-11-01T16:08:10.747Z,14.40
2018-11-01T16:10:41.328Z,14.35
2018-11-01T16:13:10.496Z,14.28
2018-11-01T16:15:39.708Z,14.22
2018-11-01T16:18:08.849Z,14.21
2018-11-01T16:20:38.100Z,14.10
2018-11-01T16:23:07.325Z,14.05
2018-11-01T16:25:36.472Z,13.97
2018-11-01T16:28:05.730Z,13.86
2018-11-01T16:30:34.879Z,13.73
2018-11-01T16:33:04.039Z,13.58
2018-11-01T16:35:33.279Z,13.52
2018-11-01T16:38:02.470Z,13.50
2018-11-01T16:40:31.619Z,13.34
2018-11-01T16:43:00.783Z,13.25
2018-11-01T16:45:30.040Z,13.25
2018-11-01T16:47:59.315Z,13.20
2018-11-01T16:50:28.467Z,13.21
2018-11-01T16:52:57.664Z,13.05
2018-11-01T16:55:26.799Z,13.01
2018-11-01T16:57:55.996Z,12.98
2018-11-01T17:00:25.815Z,12.89
2018-11-01T17:02:55.746Z,12.85
2018-11-01T17:05:25.756Z,12.76
2018-11-01T17:07:55.779Z,12.86
2018-11-01T17:10:25.788Z,12.72
2018-11-01T17:12:54.956Z,12.69
2018-11-01T17:15:24.184Z,12.59
2018-11-01T17:17:53.263Z,12.42
2018-11-01T17:20:22.403Z,12.48
2018-11-01T17:22:51.569Z,12.49
2018-11-01T17:25:20.719Z,12.44
2018-11-01T17:27:49.878Z,12.60
2018-11-01T17:30:20.880Z,12.48
2018-11-01T17:32:53.032Z,12.47
2018-11-01T17:35:25.315Z,12.50
2018-11-01T17:37:54.468Z,12.46
2018-11-01T17:40:23.672Z,12.34
2018-11-01T17:42:52.858Z,12.34
2018-11-01T17:45:22.080Z,12.33
2018-11-01T17:47:51.165Z,11.95
2018-11-01T17:50:20.684Z,12.00
2018-11-01T17:52:49.895Z,11.94
2018-11-01T17:55:19.111Z,11.92
2018-11-01T17:57:48.309Z,11.97
2018-11-01T18:00:17.731Z,11.97
2018-11-01T18:02:46.930Z,11.97
2018-11-01T18:05:16.071Z,11.79
2018-11-01T18:07:45.315Z,11.89
2018-11-01T18:10:14.518Z,11.84
2018-11-01T18:12:44.208Z,11.76
2018-11-01T18:15:13.390Z,11.74
2018-11-01T18:17:42.615Z,11.78
2018-11-01T18:20:13.036Z,11.78
2018-11-01T18:22:42.664Z,11.73
2018-11-01T18:25:13.731Z,11.74
2018-11-01T18:27:43.474Z,11.83
2018-11-01T18:30:14.945Z,11.86
2018-11-01T18:32:44.689Z,11.90
2018-11-01T18:35:13.736Z,11.94
2018-11-01T18:37:43.184Z,11.93
2018-11-01T18:40:15.595Z,12.03
2018-11-01T18:42:44.745Z,12.03
2018-11-01T18:45:15.029Z,12.00
2018-11-01T18:47:44.650Z,12.00
2018-11-01T18:50:15.286Z,12.06
2018-11-01T18:52:44.439Z,12.02
2018-11-01T18:55:13.800Z,12.09
2018-11-01T18:57:43.245Z,12.20
2018-11-01T19:00:19.239Z,12.28
2018-11-01T19:02:48.430Z,12.23
2018-11-01T19:05:17.612Z,12.21
2018-11-01T19:07:46.835Z,12.34
2018-11-01T19:10:16.152Z,12.28
2018-11-01T19:12:45.312Z,12.34
2018-11-01T19:15:15.264Z,12.25
2018-11-01T19:17:44.398Z,11.99
2018-11-01T19:20:13.972Z,11.81
2018-11-01T19:22:43.138Z,11.80
2018-11-01T19:25:12.567Z,11.99
2018-11-01T19:27:41.749Z,12.18
2018-11-01T19:30:12.088Z,12.29
2018-11-01T19:32:41.372Z,12.42
2018-11-01T19:35:11.623Z,12.47
2018-11-01T19:37:40.795Z,12.57
2018-11-01T19:40:13.446Z,12.62
2018-11-01T19:42:42.869Z,12.68
2018-11-01T19:45:12.064Z,12.64
2018-11-01T19:47:41.220Z,12.69
2018-11-01T19:50:12.443Z,12.48
2018-11-01T19:52:41.686Z,12.66
2018-11-01T19:55:11.134Z,12.69
2018-11-01T19:57:40.552Z,12.64
2018-11-01T20:00:12.429Z,12.65
2018-11-01T20:02:41.663Z,12.63
2018-11-01T20:05:11.362Z,12.56
2018-11-01T20:07:40.519Z,12.66
2018-11-01T20:10:11.411Z,12.50
2018-11-01T20:12:40.591Z,12.60
2018-11-01T20:15:09.870Z,12.56
2018-11-01T20:17:39.030Z,12.61
2018-11-01T20:20:10.703Z,12.57
2018-11-01T20:22:40.179Z,12.51
2018-11-01T20:25:17.645Z,12.42
2018-11-01T20:27:46.785Z,12.41
2018-11-01T20:30:16.698Z,12.50
2018-11-01T20:32:46.289Z,12.50
2018-11-01T20:35:16.326Z,12.51
2018-11-01T20:37:45.558Z,12.50
2018-11-01T20:40:14.688Z,12.57
2018-11-01T20:42:44.102Z,12.59
2018-11-01T20:45:13.987Z,12.37
2018-11-01T20:47:43.276Z,12.44
2018-11-01T20:50:13.321Z,12.44
2018-11-01T20:52:42.787Z,12.38
2018-11-01T20:55:11.939Z,12.49
2018-11-01T20:57:41.209Z,12.31
2018-11-01T21:00:12.376Z,12.28
2018-11-01T21:02:41.606Z,12.23
2018-11-01T21:05:10.856Z,12.34
2018-11-01T21:07:39.898Z,12.30
2018-11-01T21:10:10.196Z,12.32
2018-11-01T21:12:39.855Z,12.28
2018-11-01T21:15:11.502Z,12.22
2018-11-01T21:17:40.675Z,12.23
2018-11-01T21:20:10.059Z,12.17
2018-11-01T21:22:39.197Z,12.22
2018-11-01T21:25:09.303Z,12.18
2018-11-01T21:27:38.492Z,12.19
2018-11-01T21:30:08.184Z,12.18
2018-11-01T21:32:37.344Z,12.22
2018-11-01T21:35:07.363Z,12.29
2018-11-01T21:37:36.515Z,12.21
2018-11-01T21:40:08.128Z,12.15
2018-11-01T21:42:37.437Z,12.18
2018-11-01T21:45:09.680Z,12.12
2018-11-01T21:47:38.952Z,12.11
2018-11-01T21:50:08.116Z,12.09
2018-11-01T21:52:37.283Z,11.93
2018-11-01T21:55:07.023Z,11.99
2018-11-01T21:57:36.187Z,11.99
2018-11-01T22:00:07.149Z,12.10
2018-11-01T22:02:36.302Z,12.05
2018-11-01T22:05:06.581Z,12.05
2018-11-01T22:07:35.887Z,12.02
2018-11-01T22:10:05.503Z,11.92
2018-11-01T22:12:34.649Z,11.95
2018-11-01T22:15:03.863Z,12.03
2018-11-01T22:17:33.239Z,12.03
2018-11-01T22:20:02.380Z,11.92
2018-11-01T22:22:31.647Z,11.93
2018-11-01T22:25:01.648Z,11.87
2018-11-01T22:27:31.671Z,11.87
2018-11-01T22:30:01.679Z,11.81
2018-11-01T22:32:31.711Z,11.97
2018-11-01T22:35:01.712Z,11.97
2018-11-01T22:37:32.076Z,11.86
2018-11-01T22:40:02.159Z,11.85
2018-11-01T22:42:32.187Z,11.89
2018-11-01T22:45:02.096Z,11.91
2018-11-01T22:47:32.228Z,11.94
2018-11-01T22:50:02.192Z,11.84
2018-11-01T22:52:32.211Z,11.89
2018-11-01T22:55:02.158Z,11.84
2018-11-01T22:57:32.184Z,11.79
2018-11-01T23:00:02.277Z,11.79
2018-11-01T23:02:32.235Z,11.77
2018-11-01T23:05:02.236Z,11.78
2018-11-01T23:14:39.787Z,11.36
2018-11-01T23:17:08.939Z,11.45
2018-11-01T23:19:38.088Z,11.60
2018-11-01T23:22:07.244Z,11.59
2018-11-01T23:24:36.395Z,11.58
2018-11-01T23:27:05.692Z,11.61
2018-11-01T23:29:35.686Z,11.67
2018-11-01T23:32:06.051Z,11.74
2018-11-01T23:34:35.821Z,11.67
2018-11-01T23:37:12.197Z,11.65
2018-11-01T23:39:46.571Z,11.67
2018-11-01T23:42:21.042Z,11.63
2018-11-01T23:44:55.451Z,11.63
2018-11-01T23:47:29.911Z,11.65
2018-11-01T23:50:07.511Z,11.60
2018-11-01T23:52:37.236Z,11.57
2018-11-01T23:55:06.955Z,11.58
2018-11-01T23:57:36.783Z,11.56
